createdAt,value
2022-10-21T00:02:46.145Z,101390.63
2022-10-21T00:06:09.124Z,101407.59
2022-10-21T00:09:33.139Z,101404.56
2022-10-21T00:12:56.111Z,101405.00
2022-10-21T00:16:31.140Z,101415.84
2022-10-21T00:19:55.128Z,101417.78
2022-10-21T00:23:12.145Z,101424.44
2022-10-21T00:26:38.373Z,101429.63
2022-10-21T00:30:03.176Z,101440.44
2022-10-21T00:33:28.133Z,101443.00
2022-10-21T00:36:52.172Z,101456.63
2022-10-21T00:40:17.160Z,101453.06
2022-10-21T00:43:41.144Z,101460.97
2022-10-21T00:47:13.157Z,101466.66
2022-10-21T00:51:20.146Z,101467.22
2022-10-21T00:54:45.161Z,101482.78
2022-10-21T00:58:08.161Z,101483.94
2022-10-21T01:01:32.179Z,101483.13
2022-10-21T01:04:55.166Z,101482.28
2022-10-21T01:08:19.165Z,101488.00
2022-10-21T01:11:42.155Z,101490.50
2022-10-21T01:15:29.183Z,101520.44
2022-10-21T01:19:11.737Z,101536.84
2022-10-21T01:23:00.194Z,101534.31
2022-10-21T01:26:42.154Z,101528.50
2022-10-21T01:30:25.320Z,101540.22
2022-10-21T01:33:56.147Z,101539.09
2022-10-21T01:37:29.283Z,101536.78
2022-10-21T01:41:03.146Z,101551.72
2022-10-21T01:44:38.203Z,101555.38
2022-10-21T01:48:06.183Z,101551.19
2022-10-21T01:51:31.208Z,101551.72
2022-10-21T01:54:58.181Z,101537.78
2022-10-21T01:58:27.194Z,101548.81
2022-10-21T02:01:53.184Z,101541.34
2022-10-21T02:05:23.207Z,101536.75
2022-10-21T02:08:46.252Z,101543.69
2022-10-21T02:12:14.323Z,101543.47
2022-10-21T02:15:39.181Z,101538.69
2022-10-21T02:19:03.189Z,101531.84
2022-10-21T02:22:23.797Z,101526.59
2022-10-21T02:25:44.207Z,101531.94
2022-10-21T02:29:08.225Z,101533.56
2022-10-21T02:32:35.415Z,101530.84
2022-10-21T02:36:06.224Z,101532.75
2022-10-21T02:39:37.180Z,101529.91
2022-10-21T02:43:07.221Z,101544.47
2022-10-21T02:46:31.204Z,101537.53
2022-10-21T02:49:54.231Z,101534.03
2022-10-21T02:53:18.243Z,101545.69
2022-10-21T02:56:43.195Z,101549.88
2022-10-21T03:00:07.238Z,101551.63
2022-10-21T03:03:31.202Z,101554.72
2022-10-21T03:06:55.248Z,101548.13
2022-10-21T03:10:19.224Z,101559.34
2022-10-21T03:13:43.206Z,101565.22
2022-10-21T03:17:07.238Z,101570.88
2022-10-21T03:20:23.800Z,101571.44
2022-10-21T03:23:41.223Z,101567.84
2022-10-21T03:27:05.219Z,101573.22
2022-10-21T03:30:30.232Z,101571.25
2022-10-21T03:33:54.250Z,101584.06
2022-10-21T03:37:18.210Z,101583.06
2022-10-21T03:40:42.249Z,101587.59
2022-10-21T03:44:06.205Z,101585.81
2022-10-21T03:47:30.243Z,101587.69
2022-10-21T03:50:54.209Z,101588.00
2022-10-21T03:54:18.243Z,101604.84
2022-10-21T03:57:41.549Z,101604.81
2022-10-21T04:01:09.213Z,101602.28
2022-10-21T04:04:33.224Z,101606.94
2022-10-21T04:07:56.246Z,101615.59
2022-10-21T04:11:21.254Z,101617.47
2022-10-21T04:14:45.259Z,101625.19
2022-10-21T04:18:09.243Z,101638.66
2022-10-21T04:21:34.268Z,101628.06
2022-10-21T04:24:59.752Z,101635.63
2022-10-21T04:28:26.228Z,101635.94
2022-10-21T04:31:50.303Z,101653.56
2022-10-21T04:35:14.230Z,101657.25
2022-10-21T04:38:38.391Z,101655.69
2022-10-21T04:42:04.232Z,101661.84
2022-10-21T04:45:28.268Z,101657.34
2022-10-21T04:48:52.252Z,101667.84
2022-10-21T04:52:08.288Z,101677.38
2022-10-21T04:55:32.247Z,101683.66
2022-10-21T04:58:56.376Z,101679.03
2022-10-21T05:02:24.523Z,101680.72
2022-10-21T05:05:48.281Z,101688.00
2022-10-21T05:09:12.265Z,101693.16
2022-10-21T05:16:00.233Z,101700.81
2022-10-21T05:19:24.732Z,101701.81
2022-10-21T05:22:50.272Z,101721.84
2022-10-21T05:26:14.269Z,101720.75
2022-10-21T05:29:39.307Z,101729.16
2022-10-21T05:33:03.258Z,101721.41
2022-10-21T05:36:28.298Z,101734.84
2022-10-21T05:39:52.251Z,101740.25
2022-10-21T05:43:17.311Z,101735.81
2022-10-21T05:46:41.270Z,101741.63
2022-10-21T05:50:05.298Z,101752.91
2022-10-21T05:53:31.273Z,101744.88
2022-10-21T05:56:56.304Z,101760.75
2022-10-21T06:00:21.269Z,101760.31
2022-10-21T06:03:46.297Z,101776.16
2022-10-21T06:07:11.259Z,101782.97
2022-10-21T06:10:35.306Z,101776.69
2022-10-21T06:13:59.259Z,101795.94
2022-10-21T06:17:22.310Z,101797.09
2022-10-21T06:20:46.287Z,101813.91
2022-10-21T06:24:09.305Z,101818.13
2022-10-21T06:27:33.292Z,101821.38
2022-10-21T06:30:56.278Z,101835.06
2022-10-21T06:34:20.317Z,101840.28
2022-10-21T06:37:44.277Z,101851.72
2022-10-21T06:41:10.743Z,101856.31
2022-10-21T06:44:36.284Z,101869.66
2022-10-21T06:47:59.340Z,101870.63
2022-10-21T06:51:30.321Z,101879.09
2022-10-21T06:54:53.327Z,101877.09
2022-10-21T06:58:17.289Z,101888.78
2022-10-21T07:02:00.851Z,101890.44
2022-10-21T07:05:25.326Z,101903.63
2022-10-21T07:08:57.928Z,101911.41
2022-10-21T07:12:22.328Z,101925.16
2022-10-21T07:15:45.341Z,101928.38
2022-10-21T07:19:09.327Z,101930.44
2022-10-21T07:22:32.330Z,101937.50
2022-10-21T07:25:50.876Z,101944.22
2022-10-21T07:29:09.337Z,101954.56
2022-10-21T07:32:32.334Z,101956.34
2022-10-21T07:35:55.327Z,101972.03
2022-10-21T07:39:24.340Z,101976.97
2022-10-21T07:42:48.338Z,101982.16
2022-10-21T07:46:13.352Z,101987.94
2022-10-21T07:49:38.332Z,101993.56
2022-10-21T07:53:11.889Z,102004.31
2022-10-21T07:56:39.317Z,102009.72
2022-10-21T08:00:02.350Z,102025.91
2022-10-21T08:03:30.322Z,102028.22
2022-10-21T08:06:54.383Z,102036.19
2022-10-21T08:10:18.325Z,102045.00
2022-10-21T08:13:41.358Z,102041.38
2022-10-21T08:17:10.319Z,102057.38
2022-10-21T08:20:34.355Z,102063.53
2022-10-21T08:23:58.313Z,102068.69
2022-10-21T08:27:21.379Z,102086.84
2022-10-21T08:30:45.327Z,102086.28
2022-10-21T08:34:09.355Z,102107.75
2022-10-21T08:37:33.324Z,102104.63
2022-10-21T08:41:01.373Z,102115.66
2022-10-21T08:44:28.327Z,102131.91
2022-10-21T08:48:04.407Z,102138.66
2022-10-21T08:51:50.349Z,102143.16
2022-10-21T08:55:19.421Z,102149.47
2022-10-21T08:58:44.351Z,102145.84
2022-10-21T09:02:13.365Z,102158.94
2022-10-21T09:05:48.392Z,102166.84
2022-10-21T09:09:34.380Z,102168.78
2022-10-21T09:13:16.392Z,102174.31
2022-10-21T09:17:04.350Z,102175.28
2022-10-21T09:20:38.381Z,102190.91
2022-10-21T09:24:02.355Z,102186.78
2022-10-21T09:27:50.987Z,102201.19
2022-10-21T09:31:10.362Z,102201.38
2022-10-21T09:34:54.372Z,102204.97
2022-10-21T09:38:39.363Z,102209.72
2022-10-21T09:42:13.409Z,102198.97
2022-10-21T09:45:52.398Z,102215.78
2022-10-21T09:49:41.945Z,102223.41
2022-10-21T09:53:07.396Z,102217.44
2022-10-21T09:56:51.378Z,102223.47
2022-10-21T10:00:16.443Z,102225.50
2022-10-21T10:03:47.374Z,102221.50
2022-10-21T10:07:12.388Z,102223.41
2022-10-21T10:10:53.370Z,102236.13
2022-10-21T10:14:55.374Z,102243.38
2022-10-21T10:18:20.369Z,102236.53
2022-10-21T10:21:45.403Z,102235.75
2022-10-21T10:25:09.371Z,102230.34
2022-10-21T10:28:36.433Z,102244.13
2022-10-21T10:32:05.392Z,102252.91
2022-10-21T10:35:51.418Z,102258.28
2022-10-21T10:39:16.401Z,102256.84
2022-10-21T10:42:46.428Z,102267.28
2022-10-21T10:46:13.386Z,102281.03
2022-10-21T10:49:37.420Z,102283.50
2022-10-21T10:53:01.380Z,102279.38
2022-10-21T10:56:46.437Z,102295.38
2022-10-21T11:00:12.390Z,102313.66
2022-10-21T11:03:45.431Z,102309.94
2022-10-21T11:07:13.384Z,102318.44
2022-10-21T11:10:36.424Z,102320.50
2022-10-21T11:17:29.427Z,102324.84
2022-10-21T11:20:59.403Z,102328.78
2022-10-21T11:24:54.420Z,102328.59
2022-10-21T11:28:39.397Z,102334.19
2022-10-21T11:32:15.458Z,102345.78
2022-10-21T11:35:43.428Z,102342.47
2022-10-21T11:39:44.385Z,102347.22
2022-10-21T11:43:09.451Z,102347.22
2022-10-21T11:46:45.428Z,102345.16
2022-10-21T11:50:09.527Z,102350.13
2022-10-21T11:54:11.444Z,102354.88
2022-10-21T11:57:59.424Z,102356.72
2022-10-21T12:01:31.419Z,102369.38
2022-10-21T12:05:16.450Z,102371.81
2022-10-21T12:08:52.408Z,102376.94
2022-10-21T12:12:18.424Z,102387.88
2022-10-21T12:15:54.436Z,102388.97
2022-10-21T12:19:20.407Z,102393.75
2022-10-21T12:22:45.439Z,102399.13
2022-10-21T12:30:07.467Z,102403.06
2022-10-21T12:33:55.456Z,102401.75
2022-10-21T12:37:19.456Z,102398.59
2022-10-21T12:40:43.431Z,102412.41
2022-10-21T12:44:16.437Z,102402.84
2022-10-21T12:47:51.441Z,102404.09
2022-10-21T12:51:21.443Z,102416.91
2022-10-21T12:54:53.430Z,102427.88
2022-10-21T12:58:18.446Z,102427.81
2022-10-21T13:02:00.443Z,102430.09
2022-10-21T13:05:24.484Z,102435.28
2022-10-21T13:09:08.488Z,102431.44
2022-10-21T13:12:38.781Z,102438.06
2022-10-21T13:16:02.472Z,102444.22
2022-10-21T13:19:33.449Z,102442.41
2022-10-21T13:23:06.039Z,102440.63
2022-10-21T13:26:33.446Z,102437.66
2022-10-21T13:29:59.464Z,102438.75
2022-10-21T13:33:31.346Z,102448.94
2022-10-21T13:36:51.472Z,102446.91
2022-10-21T13:40:17.512Z,102442.56
2022-10-21T13:43:54.441Z,102449.41
2022-10-21T13:47:40.832Z,102453.88
2022-10-21T13:51:07.501Z,102451.38
2022-10-21T13:54:31.519Z,102449.31
2022-10-21T13:57:56.466Z,102463.03
2022-10-21T14:01:34.529Z,102463.50
2022-10-21T14:04:57.473Z,102469.81
2022-10-21T14:08:37.554Z,102472.84
2022-10-21T14:12:04.496Z,102472.41
2022-10-21T14:15:34.443Z,102486.38
2022-10-21T14:19:01.490Z,102478.84
2022-10-21T14:22:32.439Z,102480.63
2022-10-21T14:25:57.500Z,102466.19
2022-10-21T14:29:22.481Z,102478.94
2022-10-21T14:32:46.502Z,102485.16
2022-10-21T14:36:27.501Z,102480.59
2022-10-21T14:39:51.494Z,102483.69
2022-10-21T14:43:22.506Z,102488.13
2022-10-21T14:46:46.496Z,102482.91
2022-10-21T14:50:12.499Z,102485.50
2022-10-21T14:53:40.469Z,102479.31
2022-10-21T14:57:03.510Z,102484.09
2022-10-21T15:00:52.457Z,102499.38
2022-10-21T15:04:16.512Z,102505.69
2022-10-21T15:07:44.471Z,102493.50
2022-10-21T15:11:13.510Z,102500.38
2022-10-21T15:14:43.493Z,102494.84
2022-10-21T15:18:17.517Z,102501.34
2022-10-21T15:21:49.467Z,102507.91
2022-10-21T15:25:22.504Z,102506.72
2022-10-21T15:28:49.502Z,102516.44
2022-10-21T15:32:13.505Z,102519.19
2022-10-21T15:35:38.572Z,102522.31
2022-10-21T15:39:05.486Z,102536.91
2022-10-21T15:42:37.518Z,102529.63
2022-10-21T15:46:01.495Z,102529.41
2022-10-21T15:49:36.563Z,102525.69
2022-10-21T15:53:00.485Z,102526.06
2022-10-21T15:56:32.522Z,102525.34
2022-10-21T15:59:56.486Z,102529.56
2022-10-21T16:03:21.523Z,102518.28
2022-10-21T16:06:47.485Z,102543.41
2022-10-21T16:10:12.541Z,102553.22
2022-10-21T16:13:36.599Z,102537.81
2022-10-21T16:17:02.492Z,102531.63
2022-10-21T16:20:43.546Z,102544.03
2022-10-21T16:24:07.500Z,102549.03
2022-10-21T16:27:43.872Z,102548.84
2022-10-21T16:31:15.503Z,102548.38
2022-10-21T16:34:39.644Z,102550.06
2022-10-21T16:38:04.501Z,102551.47
2022-10-21T16:41:29.542Z,102559.81
2022-10-21T16:44:54.500Z,102560.16
2022-10-21T16:48:19.536Z,102567.16
2022-10-21T16:51:45.510Z,102555.16
2022-10-21T16:55:09.558Z,102566.84
2022-10-21T16:58:32.518Z,102567.34
2022-10-21T17:01:55.533Z,102575.88
2022-10-21T17:05:18.501Z,102569.84
2022-10-21T17:08:42.607Z,102583.41
2022-10-21T17:12:06.518Z,102583.22
2022-10-21T17:15:31.545Z,102595.28
2022-10-21T17:18:56.496Z,102593.41
2022-10-21T17:22:20.534Z,102589.38
2022-10-21T17:25:45.572Z,102602.72
2022-10-21T17:29:09.530Z,102605.38
2022-10-21T17:32:33.615Z,102618.16
2022-10-21T17:35:51.116Z,102621.63
2022-10-21T17:39:09.559Z,102623.63
2022-10-21T17:42:33.554Z,102640.75
2022-10-21T17:45:57.535Z,102649.78
2022-10-21T17:49:21.569Z,102646.75
2022-10-21T17:52:44.559Z,102658.75
2022-10-21T17:56:19.526Z,102659.47
2022-10-21T17:59:42.562Z,102664.50
2022-10-21T18:03:06.524Z,102661.00
2022-10-21T18:06:30.569Z,102672.22
2022-10-21T18:09:55.531Z,102675.38
2022-10-21T18:13:18.594Z,102674.03
2022-10-21T18:16:43.523Z,102685.19
2022-10-21T18:20:07.568Z,102687.25
2022-10-21T18:23:32.530Z,102692.38
2022-10-21T18:26:55.572Z,102692.66
2022-10-21T18:30:20.536Z,102690.00
2022-10-21T18:33:43.574Z,102694.41
2022-10-21T18:37:01.287Z,102691.44
2022-10-21T18:40:26.583Z,102692.56
2022-10-21T18:43:51.563Z,102686.53
2022-10-21T18:47:15.570Z,102704.75
2022-10-21T18:50:38.598Z,102702.97
2022-10-21T18:54:03.548Z,102712.16
2022-10-21T18:57:27.590Z,102716.16
2022-10-21T19:00:52.576Z,102714.81
2022-10-21T19:04:17.580Z,102713.00
2022-10-21T19:07:40.956Z,102714.31
2022-10-21T19:11:04.563Z,102721.91
2022-10-21T19:14:29.595Z,102728.53
2022-10-21T19:17:52.564Z,102734.22
2022-10-21T19:21:16.581Z,102727.66
2022-10-21T19:24:39.590Z,102738.47
2022-10-21T19:28:04.575Z,102739.91
2022-10-21T19:31:31.412Z,102735.56
2022-10-21T19:34:57.687Z,102747.91
2022-10-21T19:38:39.701Z,102741.22
2022-10-21T19:42:07.576Z,102748.75
2022-10-21T19:45:30.569Z,102747.00
2022-10-21T19:48:55.610Z,102745.09
2022-10-21T19:52:19.575Z,102759.91
2022-10-21T19:55:43.626Z,102754.69
2022-10-21T19:59:07.700Z,102762.19
2022-10-21T20:02:30.579Z,102757.16
2022-10-21T20:05:55.598Z,102762.34
2022-10-21T20:09:24.597Z,102751.78
2022-10-21T20:12:48.702Z,102752.19
2022-10-21T20:16:11.579Z,102753.91
2022-10-21T20:19:35.600Z,102752.53
2022-10-21T20:22:58.589Z,102761.28
2022-10-21T20:26:22.636Z,102763.03
2022-10-21T20:29:45.608Z,102759.50
2022-10-21T20:33:09.604Z,102753.84
2022-10-21T20:36:44.627Z,102769.25
2022-10-21T20:40:08.590Z,102763.13
2022-10-21T20:43:33.649Z,102767.06
2022-10-21T20:46:57.575Z,102773.63
2022-10-21T20:50:20.627Z,102763.28
2022-10-21T20:53:44.633Z,102763.13
2022-10-21T20:57:08.619Z,102770.97
2022-10-21T21:00:32.630Z,102770.25
2022-10-21T21:03:56.608Z,102769.78
2022-10-21T21:07:19.639Z,102781.03
2022-10-21T21:10:43.690Z,102780.03
2022-10-21T21:14:07.614Z,102769.03
2022-10-21T21:17:31.652Z,102774.22
2022-10-21T21:20:54.680Z,102773.25
2022-10-21T21:24:18.636Z,102780.34
2022-10-21T21:27:43.615Z,102779.94
2022-10-21T21:31:07.630Z,102778.41
2022-10-21T21:34:30.622Z,102783.88
2022-10-21T21:37:54.642Z,102791.75
2022-10-21T21:41:18.611Z,102787.63
2022-10-21T21:44:42.649Z,102782.16
2022-10-21T21:48:05.661Z,102775.88
2022-10-21T21:51:29.639Z,102776.44
2022-10-21T21:54:52.628Z,102780.72
2022-10-21T21:58:17.647Z,102772.53
2022-10-21T22:01:41.658Z,102776.28
2022-10-21T22:05:05.651Z,102771.56
2022-10-21T22:08:29.681Z,102776.72
2022-10-21T22:11:53.652Z,102775.63
2022-10-21T22:15:36.051Z,102762.84
2022-10-21T22:19:01.687Z,102765.97
2022-10-21T22:22:25.672Z,102770.59
2022-10-21T22:25:48.653Z,102768.31
2022-10-21T22:29:12.673Z,102762.69
2022-10-21T22:32:36.644Z,102769.19
2022-10-21T22:36:00.665Z,102758.72
2022-10-21T22:39:18.228Z,102766.31
2022-10-21T22:46:21.570Z,102761.03
2022-10-21T22:49:51.677Z,102759.56
2022-10-21T22:53:14.645Z,102760.50
2022-10-21T22:56:42.670Z,102751.59
2022-10-21T23:00:05.648Z,102744.03
2022-10-21T23:03:28.679Z,102746.72
2022-10-21T23:06:53.657Z,102748.81
2022-10-21T23:10:17.668Z,102751.66
2022-10-21T23:13:51.185Z,102748.44
2022-10-21T23:17:23.711Z,102743.53
2022-10-21T23:20:47.665Z,102752.06
2022-10-21T23:24:11.705Z,102745.97
2022-10-21T23:27:36.711Z,102743.78
2022-10-21T23:31:02.677Z,102741.19
2022-10-21T23:34:27.700Z,102734.72
2022-10-21T23:37:50.693Z,102724.72
2022-10-21T23:41:14.706Z,102718.03
2022-10-21T23:44:38.683Z,102715.22
2022-10-21T23:48:02.705Z,102718.59
2022-10-21T23:51:26.683Z,102727.03
2022-10-21T23:54:51.710Z,102715.44
2022-10-21T23:58:15.723Z,102707.53
